sensor_id;sensor_type;location;lat;lon;timestamp;P1;durP1;ratioP1;P2;durP2;ratioP2
19032;SDS011;9649;51.042;13.804;2022-07-23T00:02:03;4.22;;;3.03;;
19032;SDS011;9649;51.042;13.804;2022-07-23T00:07:17;3.97;;;3.15;;
19032;SDS011;9649;51.042;13.804;2022-07-23T00:18:46;8.57;;;3.60;;
19032;SDS011;9649;51.042;13.804;2022-07-23T00:30:22;4.20;;;3.42;;
19032;SDS011;9649;51.042;13.804;2022-07-23T00:36:28;5.25;;;3.10;;
19032;SDS011;9649;51.042;13.804;2022-07-23T00:41:57;6.35;;;2.80;;
19032;SDS011;9649;51.042;13.804;2022-07-23T00:47:13;4.28;;;3.22;;
19032;SDS011;9649;51.042;13.804;2022-07-23T00:52:26;3.75;;;3.00;;
19032;SDS011;9649;51.042;13.804;2022-07-23T00:58:04;5.93;;;2.90;;
19032;SDS011;9649;51.042;13.804;2022-07-23T01:03:24;8.00;;;2.80;;
19032;SDS011;9649;51.042;13.804;2022-07-23T01:14:15;5.35;;;2.92;;
19032;SDS011;9649;51.042;13.804;2022-07-23T01:19:32;6.55;;;2.88;;
19032;SDS011;9649;51.042;13.804;2022-07-23T01:25:01;3.92;;;2.67;;
19032;SDS011;9649;51.042;13.804;2022-07-23T01:30:29;5.35;;;2.92;;
19032;SDS011;9649;51.042;13.804;2022-07-23T01:35:54;3.97;;;2.88;;
19032;SDS011;9649;51.042;13.804;2022-07-23T01:41:22;2.75;;;2.55;;
19032;SDS011;9649;51.042;13.804;2022-07-23T01:46:54;5.53;;;3.05;;
19032;SDS011;9649;51.042;13.804;2022-07-23T01:52:22;4.15;;;3.00;;
19032;SDS011;9649;51.042;13.804;2022-07-23T01:58:05;4.55;;;3.58;;
19032;SDS011;9649;51.042;13.804;2022-07-23T02:03:46;3.90;;;3.50;;
19032;SDS011;9649;51.042;13.804;2022-07-23T02:09:39;4.38;;;3.50;;
19032;SDS011;9649;51.042;13.804;2022-07-23T02:15:16;6.68;;;2.72;;
19032;SDS011;9649;51.042;13.804;2022-07-23T02:20:44;4.32;;;3.53;;
19032;SDS011;9649;51.042;13.804;2022-07-23T02:26:04;5.22;;;3.75;;
19032;SDS011;9649;51.042;13.804;2022-07-23T02:31:26;4.15;;;3.53;;
19032;SDS011;9649;51.042;13.804;2022-07-23T02:37:01;6.57;;;3.38;;
19032;SDS011;9649;51.042;13.804;2022-07-23T02:42:23;4.78;;;3.13;;
19032;SDS011;9649;51.042;13.804;2022-07-23T02:47:56;5.43;;;3.35;;
19032;SDS011;9649;51.042;13.804;2022-07-23T02:53:10;4.85;;;3.78;;
19032;SDS011;9649;51.042;13.804;2022-07-23T02:58:31;6.93;;;3.88;;
19032;SDS011;9649;51.042;13.804;2022-07-23T03:04:01;6.18;;;3.50;;
19032;SDS011;9649;51.042;13.804;2022-07-23T03:09:31;4.90;;;4.05;;
19032;SDS011;9649;51.042;13.804;2022-07-23T03:14:50;4.50;;;4.03;;
19032;SDS011;9649;51.042;13.804;2022-07-23T03:20:17;7.05;;;4.45;;
19032;SDS011;9649;51.042;13.804;2022-07-23T03:25:32;5.68;;;3.83;;
19032;SDS011;9649;51.042;13.804;2022-07-23T03:30:55;6.82;;;4.38;;
19032;SDS011;9649;51.042;13.804;2022-07-23T03:41:35;5.53;;;4.25;;
19032;SDS011;9649;51.042;13.804;2022-07-23T03:47:04;5.38;;;4.32;;
19032;SDS011;9649;51.042;13.804;2022-07-23T03:52:28;7.38;;;4.57;;
19032;SDS011;9649;51.042;13.804;2022-07-23T03:57:40;6.38;;;4.40;;
19032;SDS011;9649;51.042;13.804;2022-07-23T04:02:56;4.97;;;4.10;;
19032;SDS011;9649;51.042;13.804;2022-07-23T04:08:04;4.80;;;4.22;;
19032;SDS011;9649;51.042;13.804;2022-07-23T04:13:16;6.53;;;4.20;;
19032;SDS011;9649;51.042;13.804;2022-07-23T04:18:29;9.68;;;3.70;;
19032;SDS011;9649;51.042;13.804;2022-07-23T04:23:45;9.65;;;3.67;;
19032;SDS011;9649;51.042;13.804;2022-07-23T04:28:49;5.78;;;4.10;;
19032;SDS011;9649;51.042;13.804;2022-07-23T04:33:52;4.65;;;4.15;;
19032;SDS011;9649;51.042;13.804;2022-07-23T04:38:56;6.30;;;4.22;;
19032;SDS011;9649;51.042;13.804;2022-07-23T04:43:59;7.80;;;3.95;;
19032;SDS011;9649;51.042;13.804;2022-07-23T04:49:04;5.75;;;4.45;;
19032;SDS011;9649;51.042;13.804;2022-07-23T04:54:09;12.32;;;5.45;;
19032;SDS011;9649;51.042;13.804;2022-07-23T04:59:12;9.77;;;4.72;;
19032;SDS011;9649;51.042;13.804;2022-07-23T05:04:16;8.45;;;4.40;;
19032;SDS011;9649;51.042;13.804;2022-07-23T05:09:22;4.95;;;3.92;;
19032;SDS011;9649;51.042;13.804;2022-07-23T05:14:25;5.75;;;3.95;;
19032;SDS011;9649;51.042;13.804;2022-07-23T05:19:29;5.20;;;3.92;;
19032;SDS011;9649;51.042;13.804;2022-07-23T05:24:34;9.15;;;4.20;;
19032;SDS011;9649;51.042;13.804;2022-07-23T05:29:37;4.95;;;3.63;;
19032;SDS011;9649;51.042;13.804;2022-07-23T05:34:40;4.55;;;3.85;;
19032;SDS011;9649;51.042;13.804;2022-07-23T05:39:44;5.50;;;4.15;;
19032;SDS011;9649;51.042;13.804;2022-07-23T05:44:47;5.05;;;3.50;;
19032;SDS011;9649;51.042;13.804;2022-07-23T05:49:50;5.60;;;4.15;;
19032;SDS011;9649;51.042;13.804;2022-07-23T05:54:54;6.05;;;3.67;;
19032;SDS011;9649;51.042;13.804;2022-07-23T05:59:58;4.88;;;3.58;;
19032;SDS011;9649;51.042;13.804;2022-07-23T06:05:03;6.53;;;3.97;;
19032;SDS011;9649;51.042;13.804;2022-07-23T06:10:10;4.35;;;3.15;;
19032;SDS011;9649;51.042;13.804;2022-07-23T06:15:13;8.18;;;3.90;;
19032;SDS011;9649;51.042;13.804;2022-07-23T06:20:16;4.50;;;3.80;;
19032;SDS011;9649;51.042;13.804;2022-07-23T06:25:23;6.00;;;3.75;;
19032;SDS011;9649;51.042;13.804;2022-07-23T06:30:26;7.13;;;3.83;;
19032;SDS011;9649;51.042;13.804;2022-07-23T06:35:29;4.47;;;3.80;;
19032;SDS011;9649;51.042;13.804;2022-07-23T06:40:33;5.10;;;4.60;;
19032;SDS011;9649;51.042;13.804;2022-07-23T06:45:36;5.95;;;4.40;;
19032;SDS011;9649;51.042;13.804;2022-07-23T06:50:38;7.05;;;4.85;;
19032;SDS011;9649;51.042;13.804;2022-07-23T06:55:42;5.72;;;4.82;;
19032;SDS011;9649;51.042;13.804;2022-07-23T07:00:45;6.30;;;5.05;;
19032;SDS011;9649;51.042;13.804;2022-07-23T07:05:48;8.55;;;4.78;;
19032;SDS011;9649;51.042;13.804;2022-07-23T07:10:53;9.82;;;5.20;;
19032;SDS011;9649;51.042;13.804;2022-07-23T07:15:55;6.82;;;4.80;;
19032;SDS011;9649;51.042;13.804;2022-07-23T07:20:58;6.60;;;5.00;;
19032;SDS011;9649;51.042;13.804;2022-07-23T07:26:08;7.65;;;4.90;;
19032;SDS011;9649;51.042;13.804;2022-07-23T07:31:10;6.50;;;4.38;;
19032;SDS011;9649;51.042;13.804;2022-07-23T07:36:13;6.47;;;4.25;;
19032;SDS011;9649;51.042;13.804;2022-07-23T07:41:22;5.90;;;4.30;;
19032;SDS011;9649;51.042;13.804;2022-07-23T07:47:09;8.52;;;4.75;;
19032;SDS011;9649;51.042;13.804;2022-07-23T07:52:12;7.43;;;4.55;;
19032;SDS011;9649;51.042;13.804;2022-07-23T07:57:16;4.97;;;3.42;;
19032;SDS011;9649;51.042;13.804;2022-07-23T08:02:19;4.72;;;3.80;;
19032;SDS011;9649;51.042;13.804;2022-07-23T08:07:22;6.75;;;3.83;;
19032;SDS011;9649;51.042;13.804;2022-07-23T08:12:27;9.85;;;4.43;;
19032;SDS011;9649;51.042;13.804;2022-07-23T08:17:30;5.40;;;3.80;;
19032;SDS011;9649;51.042;13.804;2022-07-23T08:22:43;5.70;;;3.67;;
19032;SDS011;9649;51.042;13.804;2022-07-23T08:27:52;5.05;;;3.17;;
19032;SDS011;9649;51.042;13.804;2022-07-23T08:32:55;8.73;;;4.35;;
19032;SDS011;9649;51.042;13.804;2022-07-23T08:38:02;4.43;;;3.45;;
19032;SDS011;9649;51.042;13.804;2022-07-23T08:43:08;4.05;;;3.50;;
19032;SDS011;9649;51.042;13.804;2022-07-23T08:48:13;4.32;;;3.45;;
19032;SDS011;9649;51.042;13.804;2022-07-23T08:53:18;5.15;;;3.03;;
19032;SDS011;9649;51.042;13.804;2022-07-23T08:58:25;6.18;;;4.03;;
19032;SDS011;9649;51.042;13.804;2022-07-23T09:03:29;4.90;;;3.10;;
19032;SDS011;9649;51.042;13.804;2022-07-23T09:08:36;6.22;;;3.45;;
19032;SDS011;9649;51.042;13.804;2022-07-23T09:13:42;5.85;;;3.63;;
19032;SDS011;9649;51.042;13.804;2022-07-23T09:18:49;4.63;;;3.38;;
19032;SDS011;9649;51.042;13.804;2022-07-23T09:23:55;5.30;;;3.22;;
19032;SDS011;9649;51.042;13.804;2022-07-23T09:29:03;5.40;;;3.75;;
19032;SDS011;9649;51.042;13.804;2022-07-23T09:34:11;5.50;;;3.10;;
19032;SDS011;9649;51.042;13.804;2022-07-23T09:39:16;3.58;;;3.10;;
19032;SDS011;9649;51.042;13.804;2022-07-23T09:44:28;3.75;;;3.28;;
19032;SDS011;9649;51.042;13.804;2022-07-23T09:49:32;5.90;;;3.33;;
19032;SDS011;9649;51.042;13.804;2022-07-23T09:54:35;4.25;;;3.38;;
19032;SDS011;9649;51.042;13.804;2022-07-23T09:59:40;10.40;;;3.72;;
19032;SDS011;9649;51.042;13.804;2022-07-23T10:04:44;3.97;;;3.45;;
19032;SDS011;9649;51.042;13.804;2022-07-23T10:09:48;6.53;;;3.65;;
19032;SDS011;9649;51.042;13.804;2022-07-23T10:14:55;5.43;;;3.63;;
19032;SDS011;9649;51.042;13.804;2022-07-23T10:19:58;8.05;;;3.58;;
19032;SDS011;9649;51.042;13.804;2022-07-23T10:25:05;8.38;;;3.53;;
19032;SDS011;9649;51.042;13.804;2022-07-23T10:30:17;6.20;;;3.58;;
19032;SDS011;9649;51.042;13.804;2022-07-23T10:35:29;7.72;;;3.63;;
19032;SDS011;9649;51.042;13.804;2022-07-23T10:40:42;4.68;;;3.35;;
19032;SDS011;9649;51.042;13.804;2022-07-23T10:46:20;4.97;;;3.50;;
19032;SDS011;9649;51.042;13.804;2022-07-23T10:51:24;4.65;;;3.50;;
19032;SDS011;9649;51.042;13.804;2022-07-23T11:02:23;6.32;;;3.05;;
19032;SDS011;9649;51.042;13.804;2022-07-23T11:07:27;6.95;;;3.28;;
19032;SDS011;9649;51.042;13.804;2022-07-23T11:12:33;6.88;;;2.90;;
19032;SDS011;9649;51.042;13.804;2022-07-23T11:23:02;4.78;;;3.28;;
19032;SDS011;9649;51.042;13.804;2022-07-23T11:28:13;5.90;;;3.20;;
19032;SDS011;9649;51.042;13.804;2022-07-23T11:33:20;5.07;;;3.20;;
19032;SDS011;9649;51.042;13.804;2022-07-23T11:38:23;5.00;;;2.83;;
19032;SDS011;9649;51.042;13.804;2022-07-23T11:43:26;4.35;;;3.53;;
19032;SDS011;9649;51.042;13.804;2022-07-23T11:48:30;6.78;;;3.22;;
19032;SDS011;9649;51.042;13.804;2022-07-23T11:53:41;6.72;;;3.50;;
19032;SDS011;9649;51.042;13.804;2022-07-23T11:58:53;6.18;;;3.70;;
19032;SDS011;9649;51.042;13.804;2022-07-23T12:03:58;7.82;;;3.60;;
19032;SDS011;9649;51.042;13.804;2022-07-23T12:09:02;5.28;;;4.00;;
19032;SDS011;9649;51.042;13.804;2022-07-23T12:14:04;5.18;;;3.83;;
19032;SDS011;9649;51.042;13.804;2022-07-23T12:19:12;7.80;;;4.57;;
19032;SDS011;9649;51.042;13.804;2022-07-23T12:24:15;6.07;;;4.65;;
19032;SDS011;9649;51.042;13.804;2022-07-23T12:29:18;5.90;;;4.75;;
19032;SDS011;9649;51.042;13.804;2022-07-23T12:34:22;5.22;;;4.57;;
19032;SDS011;9649;51.042;13.804;2022-07-23T12:39:31;5.63;;;4.63;;
19032;SDS011;9649;51.042;13.804;2022-07-23T12:44:34;6.07;;;4.05;;
19032;SDS011;9649;51.042;13.804;2022-07-23T12:49:41;7.15;;;4.30;;
19032;SDS011;9649;51.042;13.804;2022-07-23T12:54:49;4.85;;;4.05;;
19032;SDS011;9649;51.042;13.804;2022-07-23T12:59:52;9.65;;;4.15;;
19032;SDS011;9649;51.042;13.804;2022-07-23T13:05:10;8.85;;;3.58;;
19032;SDS011;9649;51.042;13.804;2022-07-23T13:10:13;5.63;;;3.95;;
19032;SDS011;9649;51.042;13.804;2022-07-23T13:15:16;6.82;;;4.10;;
19032;SDS011;9649;51.042;13.804;2022-07-23T13:20:20;3.80;;;3.35;;
19032;SDS011;9649;51.042;13.804;2022-07-23T13:25:22;4.32;;;3.53;;
19032;SDS011;9649;51.042;13.804;2022-07-23T13:30:25;6.47;;;3.53;;
19032;SDS011;9649;51.042;13.804;2022-07-23T13:35:32;5.55;;;3.70;;
19032;SDS011;9649;51.042;13.804;2022-07-23T13:40:36;5.50;;;3.83;;
19032;SDS011;9649;51.042;13.804;2022-07-23T13:45:41;4.93;;;3.80;;
19032;SDS011;9649;51.042;13.804;2022-07-23T13:50:46;9.20;;;3.75;;
19032;SDS011;9649;51.042;13.804;2022-07-23T13:55:51;4.72;;;3.95;;
19032;SDS011;9649;51.042;13.804;2022-07-23T14:00:56;4.57;;;3.53;;
19032;SDS011;9649;51.042;13.804;2022-07-23T14:06:00;7.78;;;4.00;;
19032;SDS011;9649;51.042;13.804;2022-07-23T14:11:03;5.75;;;4.00;;
19032;SDS011;9649;51.042;13.804;2022-07-23T14:16:08;7.97;;;4.57;;
19032;SDS011;9649;51.042;13.804;2022-07-23T14:21:12;4.80;;;4.25;;
19032;SDS011;9649;51.042;13.804;2022-07-23T14:26:15;7.93;;;4.75;;
19032;SDS011;9649;51.042;13.804;2022-07-23T14:31:17;6.57;;;4.60;;
19032;SDS011;9649;51.042;13.804;2022-07-23T14:36:23;6.18;;;4.53;;
19032;SDS011;9649;51.042;13.804;2022-07-23T14:41:26;4.90;;;4.00;;
19032;SDS011;9649;51.042;13.804;2022-07-23T14:46:30;4.65;;;3.97;;
19032;SDS011;9649;51.042;13.804;2022-07-23T14:51:35;4.47;;;4.05;;
19032;SDS011;9649;51.042;13.804;2022-07-23T14:56:38;4.93;;;3.80;;
19032;SDS011;9649;51.042;13.804;2022-07-23T15:01:42;4.50;;;4.10;;
19032;SDS011;9649;51.042;13.804;2022-07-23T15:06:46;4.82;;;4.20;;
19032;SDS011;9649;51.042;13.804;2022-07-23T15:11:49;5.40;;;4.55;;
19032;SDS011;9649;51.042;13.804;2022-07-23T15:16:53;5.70;;;4.38;;
19032;SDS011;9649;51.042;13.804;2022-07-23T15:21:57;5.38;;;4.35;;
19032;SDS011;9649;51.042;13.804;2022-07-23T15:27:02;6.43;;;4.70;;
19032;SDS011;9649;51.042;13.804;2022-07-23T15:32:05;5.68;;;4.65;;
19032;SDS011;9649;51.042;13.804;2022-07-23T15:37:12;5.45;;;4.90;;
19032;SDS011;9649;51.042;13.804;2022-07-23T15:42:15;6.55;;;5.07;;
19032;SDS011;9649;51.042;13.804;2022-07-23T15:47:18;6.13;;;5.22;;
19032;SDS011;9649;51.042;13.804;2022-07-23T15:52:23;6.70;;;5.35;;
19032;SDS011;9649;51.042;13.804;2022-07-23T15:57:25;6.00;;;5.30;;
19032;SDS011;9649;51.042;13.804;2022-07-23T16:02:28;11.93;;;5.80;;
19032;SDS011;9649;51.042;13.804;2022-07-23T16:07:32;7.70;;;5.90;;
19032;SDS011;9649;51.042;13.804;2022-07-23T16:12:38;6.68;;;5.38;;
19032;SDS011;9649;51.042;13.804;2022-07-23T16:17:41;7.40;;;5.55;;
19032;SDS011;9649;51.042;13.804;2022-07-23T16:22:45;6.68;;;5.93;;
19032;SDS011;9649;51.042;13.804;2022-07-23T16:27:48;12.48;;;5.55;;
19032;SDS011;9649;51.042;13.804;2022-07-23T16:32:51;6.65;;;5.43;;
19032;SDS011;9649;51.042;13.804;2022-07-23T16:37:55;7.90;;;6.38;;
19032;SDS011;9649;51.042;13.804;2022-07-23T16:43:01;8.85;;;6.25;;
19032;SDS011;9649;51.042;13.804;2022-07-23T16:48:04;7.93;;;6.25;;
19032;SDS011;9649;51.042;13.804;2022-07-23T16:53:08;8.85;;;6.78;;
19032;SDS011;9649;51.042;13.804;2022-07-23T16:58:11;8.68;;;6.30;;
19032;SDS011;9649;51.042;13.804;2022-07-23T17:03:14;8.73;;;6.53;;
19032;SDS011;9649;51.042;13.804;2022-07-23T17:08:18;10.93;;;6.38;;
19032;SDS011;9649;51.042;13.804;2022-07-23T17:13:21;9.45;;;6.50;;
19032;SDS011;9649;51.042;13.804;2022-07-23T17:18:24;9.25;;;6.45;;
19032;SDS011;9649;51.042;13.804;2022-07-23T17:23:28;9.52;;;6.55;;
19032;SDS011;9649;51.042;13.804;2022-07-23T17:28:31;12.10;;;6.95;;
19032;SDS011;9649;51.042;13.804;2022-07-23T17:33:33;10.15;;;6.95;;
19032;SDS011;9649;51.042;13.804;2022-07-23T17:38:37;8.52;;;6.25;;
19032;SDS011;9649;51.042;13.804;2022-07-23T17:43:41;8.32;;;5.97;;
19032;SDS011;9649;51.042;13.804;2022-07-23T17:48:44;8.20;;;5.68;;
19032;SDS011;9649;51.042;13.804;2022-07-23T17:53:48;7.53;;;5.28;;
19032;SDS011;9649;51.042;13.804;2022-07-23T17:58:51;10.25;;;5.10;;
19032;SDS011;9649;51.042;13.804;2022-07-23T18:03:55;6.80;;;4.93;;
19032;SDS011;9649;51.042;13.804;2022-07-23T18:08:59;7.03;;;5.50;;
19032;SDS011;9649;51.042;13.804;2022-07-23T18:14:08;8.20;;;5.47;;
19032;SDS011;9649;51.042;13.804;2022-07-23T18:19:11;6.80;;;5.05;;
19032;SDS011;9649;51.042;13.804;2022-07-23T18:24:15;9.15;;;5.70;;
19032;SDS011;9649;51.042;13.804;2022-07-23T18:29:18;10.07;;;5.60;;
19032;SDS011;9649;51.042;13.804;2022-07-23T18:34:21;8.98;;;5.82;;
19032;SDS011;9649;51.042;13.804;2022-07-23T18:39:26;7.55;;;6.00;;
19032;SDS011;9649;51.042;13.804;2022-07-23T18:44:31;10.15;;;5.85;;
19032;SDS011;9649;51.042;13.804;2022-07-23T18:49:35;8.32;;;6.03;;
19032;SDS011;9649;51.042;13.804;2022-07-23T18:54:39;10.60;;;5.97;;
19032;SDS011;9649;51.042;13.804;2022-07-23T18:59:41;7.68;;;5.55;;
19032;SDS011;9649;51.042;13.804;2022-07-23T19:04:47;9.68;;;6.57;;
19032;SDS011;9649;51.042;13.804;2022-07-23T19:09:51;9.48;;;7.00;;
19032;SDS011;9649;51.042;13.804;2022-07-23T19:14:53;9.85;;;5.97;;
19032;SDS011;9649;51.042;13.804;2022-07-23T19:19:56;10.02;;;6.10;;
19032;SDS011;9649;51.042;13.804;2022-07-23T19:25:01;10.40;;;5.95;;
19032;SDS011;9649;51.042;13.804;2022-07-23T19:30:05;9.85;;;6.95;;
19032;SDS011;9649;51.042;13.804;2022-07-23T19:35:09;10.20;;;6.28;;
19032;SDS011;9649;51.042;13.804;2022-07-23T19:40:13;7.90;;;6.25;;
19032;SDS011;9649;51.042;13.804;2022-07-23T19:45:16;9.82;;;5.97;;
19032;SDS011;9649;51.042;13.804;2022-07-23T19:50:19;8.75;;;6.78;;
19032;SDS011;9649;51.042;13.804;2022-07-23T19:55:24;9.93;;;6.70;;
19032;SDS011;9649;51.042;13.804;2022-07-23T20:00:27;10.23;;;6.75;;
19032;SDS011;9649;51.042;13.804;2022-07-23T20:05:30;7.53;;;6.72;;
19032;SDS011;9649;51.042;13.804;2022-07-23T20:10:34;10.52;;;6.97;;
19032;SDS011;9649;51.042;13.804;2022-07-23T20:15:37;7.68;;;6.88;;
19032;SDS011;9649;51.042;13.804;2022-07-23T20:20:40;11.18;;;7.25;;
19032;SDS011;9649;51.042;13.804;2022-07-23T20:25:44;13.13;;;7.75;;
19032;SDS011;9649;51.042;13.804;2022-07-23T20:30:46;14.60;;;9.27;;
19032;SDS011;9649;51.042;13.804;2022-07-23T20:35:50;13.30;;;9.43;;
19032;SDS011;9649;51.042;13.804;2022-07-23T20:40:54;16.08;;;9.38;;
19032;SDS011;9649;51.042;13.804;2022-07-23T20:45:56;15.63;;;10.30;;
19032;SDS011;9649;51.042;13.804;2022-07-23T20:50:59;17.55;;;10.20;;
19032;SDS011;9649;51.042;13.804;2022-07-23T20:56:04;13.38;;;9.90;;
19032;SDS011;9649;51.042;13.804;2022-07-23T21:01:07;16.25;;;9.70;;
19032;SDS011;9649;51.042;13.804;2022-07-23T21:06:10;15.38;;;9.30;;
19032;SDS011;9649;51.042;13.804;2022-07-23T21:11:14;13.68;;;9.63;;
19032;SDS011;9649;51.042;13.804;2022-07-23T21:16:18;15.48;;;9.52;;
19032;SDS011;9649;51.042;13.804;2022-07-23T21:21:20;13.43;;;9.80;;
19032;SDS011;9649;51.042;13.804;2022-07-23T21:26:25;13.65;;;10.35;;
19032;SDS011;9649;51.042;13.804;2022-07-23T21:31:32;15.32;;;10.70;;
19032;SDS011;9649;51.042;13.804;2022-07-23T21:36:35;15.40;;;11.70;;
19032;SDS011;9649;51.042;13.804;2022-07-23T21:41:39;15.50;;;10.85;;
19032;SDS011;9649;51.042;13.804;2022-07-23T21:46:43;16.63;;;11.38;;
19032;SDS011;9649;51.042;13.804;2022-07-23T21:51:45;17.75;;;12.63;;
19032;SDS011;9649;51.042;13.804;2022-07-23T21:56:49;19.65;;;12.48;;
19032;SDS011;9649;51.042;13.804;2022-07-23T22:01:52;15.88;;;11.43;;
19032;SDS011;9649;51.042;13.804;2022-07-23T22:06:55;17.60;;;13.10;;
19032;SDS011;9649;51.042;13.804;2022-07-23T22:11:59;18.55;;;12.52;;
19032;SDS011;9649;51.042;13.804;2022-07-23T22:17:02;15.52;;;11.18;;
19032;SDS011;9649;51.042;13.804;2022-07-23T22:22:05;16.15;;;11.63;;
19032;SDS011;9649;51.042;13.804;2022-07-23T22:27:09;15.82;;;10.93;;
19032;SDS011;9649;51.042;13.804;2022-07-23T22:32:12;17.95;;;11.80;;
19032;SDS011;9649;51.042;13.804;2022-07-23T22:37:15;14.88;;;11.80;;
19032;SDS011;9649;51.042;13.804;2022-07-23T22:42:19;18.23;;;10.93;;
19032;SDS011;9649;51.042;13.804;2022-07-23T22:47:21;13.50;;;10.63;;
19032;SDS011;9649;51.042;13.804;2022-07-23T22:52:25;13.95;;;11.00;;
19032;SDS011;9649;51.042;13.804;2022-07-23T22:57:29;15.57;;;11.02;;
19032;SDS011;9649;51.042;13.804;2022-07-23T23:02:32;13.93;;;10.93;;
19032;SDS011;9649;51.042;13.804;2022-07-23T23:07:35;16.63;;;12.35;;
19032;SDS011;9649;51.042;13.804;2022-07-23T23:12:39;16.08;;;11.57;;
19032;SDS011;9649;51.042;13.804;2022-07-23T23:17:41;15.90;;;11.38;;
19032;SDS011;9649;51.042;13.804;2022-07-23T23:22:44;22.92;;;12.18;;
19032;SDS011;9649;51.042;13.804;2022-07-23T23:27:48;16.45;;;12.68;;
19032;SDS011;9649;51.042;13.804;2022-07-23T23:32:51;15.27;;;12.23;;
19032;SDS011;9649;51.042;13.804;2022-07-23T23:37:54;17.33;;;12.50;;
19032;SDS011;9649;51.042;13.804;2022-07-23T23:42:58;15.10;;;12.05;;
19032;SDS011;9649;51.042;13.804;2022-07-23T23:48:00;18.45;;;13.30;;
19032;SDS011;9649;51.042;13.804;2022-07-23T23:53:03;16.92;;;12.57;;
19032;SDS011;9649;51.042;13.804;2022-07-23T23:58:07;19.15;;;12.60;;
